Forside
METAR-TAF:

METAR-TAF

Lufthavne :

Matsuyama, Japan

Breddekreds: 33-49N, længdekreds: 132-42E, højde: 4 m

Aktuelle vejr

Denne rapport blev lavet for 6 timer og 31 minutter siden, kl. 12:00 UTC
Vind 4 kt fra sydøst
Temperatur 13°C
Fugtighed 67%
Tryk 1019 hPa
Sigt 10 km eller mere
Nogle få skyer i en højde af 3000 ft
Brudte skyer i en højde af 13000 ft

METAR: RJOM 031200Z 13004KT 9999 FEW030 BKN130 13/07 Q1019

Tid: 03:31 (18:31 UTC)

Vejrudsigter

Denne rapport blev lavet for 1 time og 25 minutter siden, kl. 17:06 UTC
Foreløbig gælder fra 03 på 18 UTC til 05 på 00 UTC
Vind 6 kt fra østsydøst
Sigt 10 km eller mere
Nogle få skyer i en højde af 3000 ft
ændring
fra 04 på 00 UTC til 04 på 02 UTC
Vind 6 kt fra nord
ændring
fra 04 på 06 UTC til 04 på 09 UTC
Vind 18 kt fra vest
ændring
fra 04 på 15 UTC til 04 på 18 UTC
Vind 16 kt fra nord

TAF: RJOM 031706Z 0318/0500 12006KT 9999 FEW030 BECMG 0400/0402 36006KT BECMG 0406/0409 26018KT BECMG 0415/0418 36016KT

Vejrobservationer og prognoser fra mere end 4000 lufthavne (METAR og TAF).

De gule og røde prikker repræsenterer de meteorologiske stationer.

Flyt musen over at se navnet på stationen.

Så klik over at se vejr observationer og prognoser.

At skifte det kort: Klik på de grønne knapper med et sort kors for at zoome ind; på den grønne knap med en bindestreg for at zoome ud; eller på de grønne pile for tilstødende kort.


METAR-TAF: